Time;durP1;ratioP1;P1;durP2;ratioP2;P2;SDS_P1;SDS_P2;PMS_P1;PMS_P2;Temp;Humidity;BMP_temperature;BMP_pressure;BME280_temperature;BME280_humidity;BME280_pressure;Samples;Min_cycle;Max_cycle;Signal;HPM_P1;HPM_P2
2022/10/06 00:02:03;;;;;;;14.10;6.40;;;11.20;99.90;;;;;;4559010;31;20052;-88
2022/10/06 00:17:07;;;;;;;12.27;6.70;;;11.20;99.90;;;;;;4811897;29;20061;-89
2022/10/06 00:23:53;;;;;;;15.73;6.10;;;11.20;99.90;;;;;;4709654;30;20057;-88
2022/10/06 00:37:12;;;;;;;12.65;5.53;;;11.10;99.90;;;;;;4608960;24;20328;-87
2022/10/06 00:40:51;;;;;;;10.85;6.30;;;11.10;99.90;;;;;;4721356;30;20087;-88
2022/10/06 00:54:51;;;;;;;11.25;6.03;;;11.00;99.90;;;;;;4421360;24;20131;-87
2022/10/06 00:58:03;;;;;;;13.45;5.10;;;11.00;99.90;;;;;;4775030;30;20071;-88
2022/10/06 01:13:57;;;;;;;11.38;5.95;;;10.90;99.90;;;;;;4736564;30;20099;-88
2022/10/06 01:17:54;;;;;;;15.20;6.65;;;10.90;99.90;;;;;;4911879;24;20031;31
2022/10/06 01:26:08;;;;;;;14.88;6.43;;;10.60;99.90;;;;;;4892551;24;20039;-88
2022/10/06 01:30:38;;;;;;;16.67;7.10;;;10.70;99.90;;;;;;4786978;29;20101;-88
2022/10/06 01:38:06;;;;;;;15.27;6.45;;;10.70;99.90;;;;;;4792111;29;20078;-88
2022/10/06 01:42:30;;;;;;;11.98;6.93;;;10.60;99.90;;;;;;4795349;24;20055;-88
2022/10/06 01:49:58;;;;;;;15.93;7.85;;;10.60;99.90;;;;;;5208568;24;20022;31
2022/10/06 01:53:21;;;;;;;13.05;6.78;;;10.60;99.90;;;;;;4737133;30;20036;-89
2022/10/06 02:09:08;;;;;;;18.52;7.90;;;10.50;99.90;;;;;;4910720;24;20086;-88
2022/10/06 02:11:52;;;;;;;16.92;8.07;;;10.50;99.90;;;;;;4785343;30;20073;-88
2022/10/06 02:14:24;;;;;;;17.60;8.63;;;10.40;99.90;;;;;;4772516;30;20051;-87
2022/10/06 02:16:58;;;;;;;20.40;7.68;;;10.40;99.90;;;;;;4750324;30;20057;-87
2022/10/06 02:21:42;;;;;;;18.98;8.63;;;10.40;99.90;;;;;;4730590;30;20056;-89
2022/10/06 02:24:43;;;;;;;17.67;7.75;;;10.40;99.90;;;;;;4738708;30;20067;-88
2022/10/06 02:27:40;;;;;;;16.40;7.63;;;10.40;99.90;;;;;;4859131;24;20058;-88
2022/10/06 02:34:24;;;;;;;17.23;7.55;;;10.30;99.90;;;;;;4901501;24;20046;-89
2022/10/06 02:37:22;;;;;;;18.92;8.55;;;10.30;99.90;;;;;;4714719;30;20057;-88
2022/10/06 02:40:47;;;;;;;20.15;8.15;;;10.30;99.90;;;;;;4721502;30;20060;-88
2022/10/06 02:44:28;;;;;;;17.05;7.78;;;10.40;99.90;;;;;;4762927;30;20036;-87
2022/10/06 02:47:31;;;;;;;17.13;8.55;;;10.30;99.90;;;;;;4722865;30;20059;-88
2022/10/06 02:50:07;;;;;;;19.33;7.82;;;10.20;99.90;;;;;;4765368;30;20056;-88
2022/10/06 02:52:49;;;;;;;16.67;7.70;;;10.30;99.90;;;;;;4738243;30;20055;-88
2022/10/06 02:55:38;;;;;;;18.23;8.52;;;10.20;99.90;;;;;;4710393;30;20047;-87
2022/10/06 02:58:16;;;;;;;13.60;7.07;;;10.20;99.90;;;;;;4782179;30;20051;-87
2022/10/06 03:00:46;;;;;;;15.05;7.60;;;10.20;99.90;;;;;;4755553;30;20064;-88
2022/10/06 03:03:20;;;;;;;17.08;7.97;;;10.20;99.90;;;;;;4707865;30;20565;-88
2022/10/06 03:06:57;;;;;;;18.63;8.95;;;10.00;99.90;;;;;;4892448;24;20463;-89
2022/10/06 03:10:31;;;;;;;19.52;8.07;;;10.20;99.90;;;;;;4754107;30;20053;-89
2022/10/06 03:22:47;;;;;;;21.35;10.65;;;10.00;99.90;;;;;;4740653;30;20045;-88
2022/10/06 03:26:52;;;;;;;17.55;8.85;;;10.10;99.90;;;;;;4707741;30;20029;-89
2022/10/06 03:31:16;;;;;;;20.77;8.93;;;10.20;99.90;;;;;;4713629;30;20113;-88
2022/10/06 03:38:38;;;;;;;18.45;9.23;;;10.10;99.90;;;;;;4946617;24;20040;-88
2022/10/06 03:41:53;;;;;;;19.40;9.00;;;10.00;99.90;;;;;;4718828;30;20060;-88
2022/10/06 03:44:39;;;;;;;19.65;9.35;;;10.00;99.90;;;;;;4741668;30;20537;-88
2022/10/06 03:47:32;;;;;;;17.95;9.48;;;9.90;99.90;;;;;;4718719;30;20122;-88
2022/10/06 03:50:19;;;;;;;18.92;8.35;;;9.70;99.90;;;;;;4698680;30;20061;-88
2022/10/06 03:53:32;;;;;;;19.23;8.90;;;9.90;99.90;;;;;;4997907;24;20109;-88
2022/10/06 04:09:15;;;;;;;19.27;8.23;;;9.90;99.90;;;;;;3662433;24;20316;-86
2022/10/06 04:12:30;;;;;;;18.75;8.15;;;9.90;99.90;;;;;;4815658;24;20028;-88
2022/10/06 04:16:29;;;;;;;18.65;7.93;;;9.90;99.90;;;;;;4715389;30;20074;-89
2022/10/06 04:20:30;;;;;;;18.50;8.38;;;9.90;99.90;;;;;;4624851;31;20135;-88
2022/10/06 04:23:31;;;;;;;16.95;7.38;;;9.80;99.90;;;;;;4601812;31;20040;-88
2022/10/06 04:31:16;;;;;;;17.48;8.68;;;9.60;99.90;;;;;;4674175;30;20046;-88
2022/10/06 04:35:33;;;;;;;17.40;8.60;;;9.90;99.90;;;;;;4700543;30;20113;-89
2022/10/06 04:40:03;;;;;;;21.13;9.32;;;9.70;99.90;;;;;;4643402;31;20054;-89
2022/10/06 04:43:48;;;;;;;17.70;8.88;;;9.70;99.90;;;;;;4648231;30;20062;-88
2022/10/06 04:47:39;;;;;;;23.52;9.60;;;9.70;99.90;;;;;;4600036;31;20097;-89
2022/10/06 04:51:30;;;;;;;15.82;8.68;;;9.50;99.90;;;;;;4564359;31;20058;-89
2022/10/06 04:54:52;;;;;;;23.38;9.20;;;9.60;99.90;;;;;;4570886;31;20095;-87
2022/10/06 04:57:56;;;;;;;19.88;9.63;;;9.60;99.90;;;;;;4536853;31;20062;-88
2022/10/06 05:01:37;;;;;;;19.75;9.63;;;9.60;99.90;;;;;;4548677;31;20066;-90
2022/10/06 05:06:31;;;;;;;22.33;9.68;;;9.40;99.90;;;;;;4484295;32;20031;-88
2022/10/06 05:10:11;;;;;;;26.70;9.90;;;9.00;99.90;;;;;;4475205;31;20056;-88
2022/10/06 05:13:57;;;;;;;23.42;9.45;;;9.70;99.90;;;;;;4453882;32;20051;-88
2022/10/06 05:17:37;;;;;;;22.50;11.02;;;9.60;99.90;;;;;;4461705;31;20076;-88
2022/10/06 05:21:43;;;;;;;17.80;9.55;;;9.60;99.90;;;;;;4435862;32;20133;-89
2022/10/06 05:28:29;;;;;;;22.65;10.15;;;9.70;99.90;;;;;;5204092;24;20043;-88
2022/10/06 05:31:12;;;;;;;22.35;10.52;;;9.70;99.90;;;;;;4759369;30;20054;-88
2022/10/06 05:34:06;;;;;;;21.25;10.75;;;10.00;99.90;;;;;;4750972;30;20056;-88
2022/10/06 05:36:51;;;;;;;20.02;9.95;;;9.90;99.90;;;;;;4746767;30;20044;-88
2022/10/06 05:39:25;;;;;;;23.05;10.60;;;10.00;99.90;;;;;;4710146;30;20057;-86
2022/10/06 05:41:59;;;;;;;28.60;11.23;;;10.10;99.90;;;;;;4683918;30;20046;-88
2022/10/06 05:44:54;;;;;;;23.65;11.00;;;10.10;99.90;;;;;;4693927;30;20367;-88
2022/10/06 05:47:28;;;;;;;27.23;12.82;;;10.30;99.90;;;;;;4696064;30;20054;-87
2022/10/06 06:00:07;;;;;;;33.13;13.20;;;10.60;99.90;;;;;;4689719;30;20030;-89
2022/10/06 06:03:37;;;;;;;34.63;13.90;;;10.00;99.90;;;;;;4631321;30;20064;-86
2022/10/06 06:07:09;;;;;;;43.30;13.20;;;10.80;99.90;;;;;;4612320;31;20159;-86
2022/10/06 06:20:58;;;;;;;31.13;14.07;;;10.90;99.90;;;;;;4025991;27;31656690;-86
2022/10/06 06:24:30;;;;;;;26.70;12.13;;;11.00;99.90;;;;;;5110791;28;20048;-87
2022/10/06 06:27:21;;;;;;;33.15;13.25;;;11.40;99.90;;;;;;5040881;28;20042;-87
2022/10/06 06:30:24;;;;;;;39.20;17.30;;;11.10;99.90;;;;;;5013423;28;20046;-86
2022/10/06 06:33:37;;;;;;;61.08;24.30;;;11.10;99.90;;;;;;4992596;28;20051;-86
2022/10/06 06:36:25;;;;;;;58.85;22.75;;;11.10;99.90;;;;;;4963165;29;20043;-85
2022/10/06 06:40:10;;;;;;;32.22;14.45;;;11.60;99.90;;;;;;4898768;29;20068;-86
2022/10/06 06:43:32;;;;;;;30.13;12.68;;;11.20;99.90;;;;;;4918844;29;20578;-86
2022/10/06 06:47:21;;;;;;;21.40;10.00;;;11.20;99.90;;;;;;4857668;29;20397;-87
2022/10/06 07:26:19;;;;;;;33.50;13.63;;;11.80;99.90;;;;;;4768644;30;20055;-86
2022/10/06 07:29:46;;;;;;;25.75;12.85;;;11.80;99.90;;;;;;4705877;30;20037;-86
2022/10/06 07:32:40;;;;;;;26.23;12.43;;;11.80;99.90;;;;;;4710297;30;20049;-87
2022/10/06 07:35:54;;;;;;;27.90;14.20;;;11.90;99.90;;;;;;4729756;30;20049;-86
2022/10/06 07:39:40;;;;;;;31.20;14.65;;;11.80;99.90;;;;;;4735116;30;20120;-85
2022/10/06 07:43:08;;;;;;;27.13;14.70;;;11.70;99.90;;;;;;4723037;30;20049;-86
2022/10/06 07:46:23;;;;;;;23.13;13.15;;;12.10;99.90;;;;;;4688648;30;20042;-86
2022/10/06 07:50:06;;;;;;;29.10;14.45;;;11.90;99.90;;;;;;4703139;30;20176;-87
2022/10/06 07:57:53;;;;;;;24.48;13.93;;;12.10;99.90;;;;;;4684124;30;20061;-86
2022/10/06 08:01:53;;;;;;;24.47;11.43;;;12.40;99.90;;;;;;4616763;31;20068;-87
2022/10/06 08:05:33;;;;;;;25.15;12.02;;;12.30;99.90;;;;;;4534586;31;20161;-86
2022/10/06 08:09:22;;;;;;;22.48;10.95;;;12.30;99.90;;;;;;4557141;31;20042;-87
2022/10/06 08:12:36;;;;;;;26.42;12.40;;;12.40;99.90;;;;;;4600372;31;20062;-87
2022/10/06 08:16:28;;;;;;;20.73;11.40;;;12.50;99.90;;;;;;4566872;31;20061;-88
2022/10/06 08:27:52;;;;;;;22.23;11.07;;;13.10;99.90;;;;;;5002653;24;20045;-87
2022/10/06 09:34:44;;;;;;;15.48;8.75;;;14.70;99.90;;;;;;4835126;29;20529;-86
2022/10/06 09:38:37;;;;;;;18.27;8.68;;;14.80;99.90;;;;;;4757826;30;20031;-87
2022/10/06 09:49:17;;;;;;;14.55;6.63;;;15.00;99.90;;;;;;4945459;24;20054;-86
2022/10/06 10:01:32;;;;;;;17.25;6.78;;;15.00;99.90;;;;;;4805409;30;20067;-86
2022/10/06 10:05:09;;;;;;;13.15;7.13;;;15.30;99.90;;;;;;4782144;30;20071;-87
2022/10/06 10:18:59;;;;;;;12.02;6.53;;;15.50;99.90;;;;;;4785969;29;20060;-86
2022/10/06 10:33:17;;;;;;;10.55;5.32;;;15.80;99.90;;;;;;5890212;24;20028;31
2022/10/06 10:35:55;;;;;;;14.65;5.28;;;15.80;99.90;;;;;;4765650;30;20060;-86
2022/10/06 10:38:31;;;;;;;10.77;6.10;;;15.80;99.90;;;;;;4750571;30;20055;-86
2022/10/06 10:41:58;;;;;;;9.55;5.47;;;15.50;99.90;;;;;;4773211;30;20052;-86
2022/10/06 12:31:18;;;;;;;10.77;5.38;;;17.10;94.90;;;;;;4825505;29;20061;-85
2022/10/06 12:33:49;;;;;;;14.55;6.43;;;17.40;94.90;;;;;;4792665;29;20039;-86
2022/10/06 12:37:03;;;;;;;13.13;6.20;;;17.20;95.90;;;;;;5071931;23;20031;-84
2022/10/06 12:39:34;;;;;;;11.30;4.93;;;17.20;95.80;;;;;;4843939;29;20050;-84
2022/10/06 12:42:49;;;;;;;9.77;4.78;;;17.20;94.90;;;;;;4815532;29;20042;-85
2022/10/06 12:49:35;;;;;;;8.95;5.40;;;17.20;95.00;;;;;;5398627;24;20642;31
2022/10/06 16:27:27;;;;;;;15.63;6.25;;;16.00;99.90;;;;;;4812456;29;20077;-85
2022/10/06 20:08:22;;;;;;;88.68;43.13;;;14.30;99.90;;;;;;5409501;24;20063;-87
2022/10/06 20:11:55;;;;;;;84.72;46.03;;;14.30;99.90;;;;;;4817675;29;20039;-86
